createdAt,value
2019-03-28T00:01:10.800Z,6.92
2019-03-28T00:06:15.912Z,6.51
2019-03-28T00:11:21.076Z,6.63
2019-03-28T00:16:26.361Z,6.68
2019-03-28T00:21:32.317Z,6.69
2019-03-28T00:26:37.057Z,6.60
2019-03-28T00:31:41.902Z,6.26
2019-03-28T00:36:48.284Z,6.15
2019-03-28T00:41:52.877Z,6.03
2019-03-28T00:46:57.879Z,5.91
2019-03-28T00:52:02.487Z,5.46
2019-03-28T00:57:07.209Z,5.64
2019-03-28T01:02:11.793Z,5.73
2019-03-28T01:07:16.625Z,5.67
2019-03-28T01:12:21.321Z,5.57
2019-03-28T01:17:26.099Z,5.59
2019-03-28T01:22:31.117Z,5.71
2019-03-28T01:27:36.045Z,5.67
2019-03-28T01:32:40.914Z,5.94
2019-03-28T01:37:45.852Z,5.76
2019-03-28T01:42:50.805Z,5.41
2019-03-28T01:47:55.497Z,5.59
2019-03-28T01:53:00.333Z,5.76
2019-03-28T01:58:05.299Z,5.79
2019-03-28T02:03:10.227Z,5.74
2019-03-28T02:08:15.318Z,5.79
2019-03-28T02:13:19.975Z,6.02
2019-03-28T02:18:24.535Z,6.33
2019-03-28T02:23:29.118Z,6.39
2019-03-28T02:28:33.678Z,6.22
2019-03-28T02:33:38.384Z,6.26
2019-03-28T02:38:43.629Z,6.73
2019-03-28T02:43:48.480Z,6.99
2019-03-28T02:48:53.912Z,7.02
2019-03-28T02:53:58.974Z,6.70
2019-03-28T02:59:03.725Z,6.23
2019-03-28T03:04:08.339Z,6.14
2019-03-28T03:09:13.070Z,6.13
2019-03-28T03:14:17.724Z,6.19
2019-03-28T03:19:22.796Z,6.15
2019-03-28T03:24:27.676Z,6.16
2019-03-28T03:29:35.194Z,6.37
2019-03-28T03:34:41.004Z,6.42
2019-03-28T03:39:45.962Z,6.30
2019-03-28T03:44:50.953Z,6.35
2019-03-28T03:49:56.485Z,6.38
2019-03-28T03:55:01.586Z,6.34
2019-03-28T04:00:07.434Z,6.38
2019-03-28T04:05:12.722Z,6.26
2019-03-28T04:10:17.700Z,6.01
2019-03-28T04:15:22.529Z,5.84
2019-03-28T04:20:27.320Z,5.34
2019-03-28T04:25:32.086Z,4.97
2019-03-28T04:30:36.910Z,4.78
2019-03-28T04:35:41.701Z,4.85
2019-03-28T04:40:47.183Z,4.92
2019-03-28T04:45:51.967Z,4.92
2019-03-28T04:50:56.723Z,4.78
2019-03-28T04:56:01.506Z,4.91
2019-03-28T05:01:06.338Z,5.01
2019-03-28T05:06:10.982Z,5.04
2019-03-28T05:11:15.823Z,5.03
2019-03-28T05:16:20.621Z,5.17
2019-03-28T05:21:25.515Z,5.12
2019-03-28T05:26:30.256Z,4.92
2019-03-28T05:31:35.213Z,4.87
2019-03-28T05:36:39.938Z,4.79
2019-03-28T05:41:44.858Z,4.69
2019-03-28T05:46:49.633Z,4.45
2019-03-28T05:51:54.409Z,4.32
2019-03-28T05:56:59.543Z,4.38
2019-03-28T06:02:04.368Z,4.42
2019-03-28T06:07:09.697Z,4.43
2019-03-28T06:12:15.183Z,4.60
2019-03-28T06:17:19.878Z,4.59
2019-03-28T06:22:25.088Z,4.51
2019-03-28T06:27:29.826Z,4.56
2019-03-28T06:32:42.944Z,4.85
2019-03-28T06:37:40.948Z,5.25
2019-03-28T06:42:46.038Z,5.26
2019-03-28T06:47:50.938Z,5.48
2019-03-28T06:52:55.899Z,6.36
2019-03-28T06:58:00.633Z,6.97
2019-03-28T07:03:05.768Z,7.46
2019-03-28T07:08:10.581Z,8.31
2019-03-28T07:13:15.578Z,8.92
2019-03-28T07:18:20.343Z,9.58
2019-03-28T07:23:25.065Z,10.35
2019-03-28T07:28:30.058Z,10.47
2019-03-28T07:33:34.713Z,10.32
2019-03-28T07:38:40.418Z,10.31
2019-03-28T07:43:49.033Z,10.30
2019-03-28T07:48:53.864Z,10.24
2019-03-28T07:53:58.582Z,10.23
2019-03-28T07:59:05.878Z,10.09
2019-03-28T08:04:14.690Z,10.16
2019-03-28T08:09:21.323Z,10.17
2019-03-28T08:14:26.073Z,10.19
2019-03-28T08:19:30.785Z,9.78
2019-03-28T08:24:37.177Z,9.59
2019-03-28T08:29:42.429Z,9.74
2019-03-28T08:34:48.612Z,10.07
2019-03-28T08:39:53.866Z,10.32
2019-03-28T08:44:58.860Z,10.10
2019-03-28T08:50:04.150Z,10.05
2019-03-28T08:55:10.118Z,10.19
2019-03-28T09:00:16.715Z,10.87
2019-03-28T09:05:22.537Z,11.03
2019-03-28T09:10:27.378Z,11.61
2019-03-28T09:15:43.569Z,13.30
2019-03-28T09:20:41.883Z,14.38
2019-03-28T09:25:46.740Z,13.71
2019-03-28T09:30:51.450Z,14.38
2019-03-28T09:35:56.168Z,14.97
2019-03-28T09:41:00.954Z,15.61
2019-03-28T09:46:06.395Z,16.18
2019-03-28T09:51:11.174Z,16.50
2019-03-28T09:56:16.313Z,16.69
2019-03-28T10:01:21.009Z,16.41
2019-03-28T10:06:28.833Z,16.44
2019-03-28T10:11:33.987Z,16.92
2019-03-28T10:16:40.306Z,16.67
2019-03-28T10:21:45.257Z,16.29
2019-03-28T10:26:52.413Z,16.72
2019-03-28T10:31:57.407Z,16.37
2019-03-28T10:37:02.509Z,16.95
2019-03-28T10:42:07.345Z,16.97
2019-03-28T10:47:12.405Z,16.79
2019-03-28T10:52:18.513Z,16.12
2019-03-28T10:57:29.969Z,17.03
2019-03-28T11:02:30.669Z,17.24
2019-03-28T11:07:35.468Z,15.91
2019-03-28T11:12:40.207Z,16.14
2019-03-28T11:17:47.856Z,16.40
2019-03-28T11:22:52.870Z,16.28
2019-03-28T11:27:57.927Z,16.61
2019-03-28T11:33:06.305Z,17.16
2019-03-28T11:38:09.817Z,16.98
2019-03-28T11:43:15.557Z,16.71
2019-03-28T11:48:20.874Z,17.16
2019-03-28T11:53:25.887Z,17.78
2019-03-28T11:58:32.889Z,17.44
2019-03-28T12:03:37.758Z,17.58
2019-03-28T12:08:42.547Z,16.66
2019-03-28T12:13:47.337Z,17.79
2019-03-28T12:18:52.447Z,16.92
2019-03-28T12:23:57.245Z,16.25
2019-03-28T12:29:02.008Z,15.91
2019-03-28T12:34:06.748Z,15.76
2019-03-28T12:39:15.365Z,15.95
2019-03-28T12:44:18.814Z,15.74
2019-03-28T12:49:23.747Z,15.79
2019-03-28T12:54:29.050Z,16.35
2019-03-28T12:59:33.908Z,15.12
2019-03-28T13:04:38.768Z,14.93
2019-03-28T13:09:43.697Z,15.64
2019-03-28T13:14:49.649Z,15.30
2019-03-28T13:19:54.677Z,15.25
2019-03-28T13:24:59.574Z,15.44
2019-03-28T13:30:06.348Z,15.42
2019-03-28T13:35:11.727Z,15.84
2019-03-28T13:40:16.756Z,16.99
2019-03-28T13:45:21.867Z,16.93
2019-03-28T13:50:27.718Z,16.45
2019-03-28T13:55:32.627Z,16.38
2019-03-28T14:00:37.679Z,17.13
2019-03-28T14:05:42.645Z,16.30
2019-03-28T14:10:47.707Z,16.69
2019-03-28T14:15:52.468Z,16.18
2019-03-28T14:20:57.947Z,16.35
2019-03-28T14:26:02.888Z,15.97
2019-03-28T14:31:07.865Z,16.65
2019-03-28T14:36:12.991Z,16.55
2019-03-28T14:41:18.105Z,15.56
2019-03-28T14:46:22.921Z,15.71
2019-03-28T14:51:28.022Z,15.03
2019-03-28T14:56:33.413Z,15.30
2019-03-28T15:01:38.427Z,14.80
2019-03-28T15:06:43.148Z,15.55
2019-03-28T15:11:50.565Z,14.69
2019-03-28T15:16:58.009Z,14.71
2019-03-28T15:22:03.146Z,14.95
2019-03-28T15:27:07.808Z,14.00
2019-03-28T15:32:13.787Z,14.32
2019-03-28T15:37:18.538Z,14.49
2019-03-28T15:42:23.387Z,13.90
2019-03-28T15:47:28.848Z,13.89
2019-03-28T15:52:34.527Z,14.20
2019-03-28T15:57:40.766Z,13.51
2019-03-28T16:02:45.747Z,13.71
2019-03-28T16:07:50.845Z,13.75
2019-03-28T16:12:55.655Z,13.05
2019-03-28T16:18:00.227Z,12.72
2019-03-28T16:23:05.679Z,12.72
2019-03-28T16:28:10.388Z,12.48
2019-03-28T16:33:18.409Z,12.28
2019-03-28T16:38:23.165Z,12.23
2019-03-28T16:43:27.950Z,11.99
2019-03-28T16:48:32.667Z,11.94
2019-03-28T16:53:37.617Z,11.99
2019-03-28T16:58:42.306Z,11.64
2019-03-28T17:03:47.067Z,11.55
2019-03-28T17:08:53.367Z,11.32
2019-03-28T17:13:58.007Z,11.23
2019-03-28T17:19:02.867Z,10.94
2019-03-28T17:24:07.768Z,10.73
2019-03-28T17:34:34.742Z,10.39
2019-03-28T17:39:31.427Z,10.27
2019-03-28T17:44:36.865Z,10.15
2019-03-28T17:49:42.817Z,9.91
2019-03-28T17:54:48.688Z,9.74
2019-03-28T17:59:53.998Z,9.67
2019-03-28T18:05:09.345Z,9.52
2019-03-28T18:10:08.859Z,9.23
2019-03-28T18:15:13.768Z,9.05
2019-03-28T18:20:18.768Z,8.83
2019-03-28T18:25:23.586Z,8.76
2019-03-28T18:30:28.657Z,8.70
2019-03-28T18:35:34.634Z,8.75
2019-03-28T18:40:39.827Z,8.14
2019-03-28T18:45:44.787Z,7.85
2019-03-28T18:50:49.627Z,8.01
2019-03-28T18:55:54.366Z,7.78
2019-03-28T19:00:58.987Z,7.59
2019-03-28T19:06:03.959Z,7.54
2019-03-28T19:11:08.729Z,6.99
2019-03-28T19:16:13.587Z,6.82
2019-03-28T19:21:18.473Z,7.02
2019-03-28T19:26:23.867Z,7.01
2019-03-28T19:31:28.567Z,6.87
2019-03-28T19:36:34.059Z,6.50
2019-03-28T19:41:38.817Z,6.44
2019-03-28T19:46:43.667Z,6.35
2019-03-28T19:51:48.625Z,6.21
2019-03-28T19:56:53.349Z,6.15
2019-03-28T20:01:58.446Z,6.18
2019-03-28T20:07:03.268Z,6.04
2019-03-28T20:12:08.247Z,6.28
2019-03-28T20:17:13.229Z,6.37
2019-03-28T20:22:17.866Z,6.34
2019-03-28T20:27:23.065Z,6.40
2019-03-28T20:32:28.997Z,6.59
2019-03-28T20:37:33.807Z,6.58
2019-03-28T20:42:38.506Z,6.61
2019-03-28T20:47:43.467Z,6.70
2019-03-28T20:52:48.427Z,6.60
2019-03-28T20:57:53.148Z,6.55
2019-03-28T21:02:57.747Z,6.61
2019-03-28T21:08:03.529Z,6.85
2019-03-28T21:13:09.684Z,6.85
2019-03-28T21:18:15.000Z,6.89
2019-03-28T21:23:19.784Z,6.81
2019-03-28T21:28:25.200Z,7.07
2019-03-28T21:33:30.162Z,7.12
2019-03-28T21:38:35.005Z,7.18
2019-03-28T21:43:40.246Z,6.97
2019-03-28T21:48:45.140Z,6.59
2019-03-28T21:53:49.867Z,6.30
2019-03-28T21:58:54.786Z,5.88
2019-03-28T22:03:59.690Z,5.83
2019-03-28T22:09:05.967Z,5.75
2019-03-28T22:14:10.967Z,5.62
2019-03-28T22:19:18.168Z,5.55
2019-03-28T22:24:22.847Z,5.34
2019-03-28T22:29:27.590Z,5.03
2019-03-28T22:34:34.072Z,4.93
2019-03-28T22:39:39.468Z,4.85
2019-03-28T22:44:44.507Z,4.83
2019-03-28T22:49:49.606Z,4.93
2019-03-28T22:54:54.389Z,4.79
2019-03-28T22:59:59.070Z,4.81
2019-03-28T23:05:04.907Z,4.83
2019-03-28T23:10:09.999Z,5.00
2019-03-28T23:15:14.785Z,4.86
2019-03-28T23:20:19.657Z,4.83
2019-03-28T23:25:24.356Z,4.72
2019-03-28T23:30:29.261Z,4.48
2019-03-28T23:35:33.835Z,4.52
2019-03-28T23:40:38.473Z,4.57
2019-03-28T23:45:43.561Z,4.51
2019-03-28T23:50:48.311Z,4.48
2019-03-28T23:55:52.952Z,4.04
